createdAt,value
2023-03-06T00:02:38.343Z,4.18
2023-03-06T00:07:41.658Z,4.20
2023-03-06T00:12:44.341Z,6.93
2023-03-06T00:17:47.057Z,8.60
2023-03-06T00:22:50.382Z,7.97
2023-03-06T00:27:53.360Z,7.88
2023-03-06T00:32:56.160Z,7.93
2023-03-06T00:37:59.998Z,8.43
2023-03-06T00:43:02.861Z,7.63
2023-03-06T00:48:06.090Z,8.10
2023-03-06T00:53:08.691Z,7.18
2023-03-06T00:58:11.493Z,7.72
2023-03-06T01:03:14.320Z,6.87
2023-03-06T01:08:16.991Z,7.60
2023-03-06T01:13:19.684Z,6.05
2023-03-06T01:18:22.419Z,6.57
2023-03-06T01:23:25.062Z,6.88
2023-03-06T01:28:28.458Z,4.83
2023-03-06T01:33:31.584Z,5.70
2023-03-06T01:38:35.727Z,4.75
2023-03-06T01:43:42.615Z,6.32
2023-03-06T01:48:47.292Z,4.63
2023-03-06T01:53:51.318Z,4.20
2023-03-06T01:58:54.351Z,4.80
2023-03-06T02:03:57.050Z,5.63
2023-03-06T02:08:59.662Z,5.20
2023-03-06T02:14:02.804Z,6.07
2023-03-06T02:19:09.477Z,4.47
2023-03-06T02:24:32.623Z,5.00
2023-03-06T02:29:35.502Z,5.22
2023-03-06T02:34:39.065Z,6.18
2023-03-06T02:39:47.296Z,5.47
2023-03-06T02:44:51.664Z,5.53
2023-03-06T02:49:54.358Z,4.00
2023-03-06T02:54:57.033Z,6.18
2023-03-06T02:59:59.588Z,5.45
2023-03-06T03:05:02.738Z,5.93
2023-03-06T03:10:06.838Z,4.70
2023-03-06T03:15:10.507Z,5.57
2023-03-06T03:20:16.692Z,4.53
2023-03-06T03:25:20.424Z,4.68
2023-03-06T03:30:23.661Z,4.65
2023-03-06T03:35:26.633Z,5.57
2023-03-06T03:40:29.977Z,5.63
2023-03-06T03:45:34.924Z,6.32
2023-03-06T03:50:38.323Z,6.20
2023-03-06T03:55:41.367Z,7.40
2023-03-06T04:00:44.399Z,6.20
2023-03-06T04:05:50.027Z,5.38
2023-03-06T04:10:53.810Z,5.80
2023-03-06T04:15:57.301Z,4.93
2023-03-06T04:21:00.125Z,5.97
2023-03-06T04:26:03.887Z,4.53
2023-03-06T04:31:06.800Z,6.32
2023-03-06T04:36:25.588Z,5.82
2023-03-06T04:41:30.892Z,5.18
2023-03-06T04:46:34.804Z,4.82
2023-03-06T04:51:37.546Z,6.97
2023-03-06T04:56:40.253Z,5.72
2023-03-06T05:01:43.063Z,5.90
2023-03-06T05:06:45.603Z,6.55
2023-03-06T05:11:48.183Z,5.93
2023-03-06T05:16:50.815Z,5.87
2023-03-06T05:21:53.456Z,5.88
2023-03-06T05:26:56.009Z,6.45
2023-03-06T05:31:59.166Z,6.53
2023-03-06T05:37:02.103Z,7.22
2023-03-06T05:42:04.855Z,6.20
2023-03-06T05:47:08.916Z,7.00
2023-03-06T05:52:13.518Z,6.47
2023-03-06T05:57:16.048Z,6.97
2023-03-06T06:02:19.400Z,6.47
2023-03-06T06:07:22.025Z,7.20
2023-03-06T06:12:25.020Z,5.57
2023-03-06T06:17:27.681Z,7.60
2023-03-06T06:22:30.384Z,5.22
2023-03-06T06:27:33.285Z,6.22
2023-03-06T06:32:36.796Z,6.00
2023-03-06T06:37:39.516Z,5.50
2023-03-06T06:42:42.880Z,6.13
2023-03-06T06:47:46.404Z,5.47
2023-03-06T06:52:50.443Z,5.50
2023-03-06T06:57:53.618Z,5.73
2023-03-06T07:02:56.422Z,5.53
2023-03-06T07:07:59.385Z,5.55
2023-03-06T07:13:02.641Z,6.13
2023-03-06T07:18:05.476Z,2.70
2023-03-06T07:23:11.892Z,5.07
2023-03-06T07:28:14.879Z,5.20
2023-03-06T07:33:18.164Z,5.07
2023-03-06T07:38:20.975Z,3.55
2023-03-06T07:43:23.763Z,3.03
2023-03-06T07:48:36.168Z,2.77
2023-03-06T07:53:38.891Z,3.65
2023-03-06T07:58:44.141Z,4.50
2023-03-06T08:03:47.627Z,4.22
2023-03-06T08:08:52.075Z,5.10
2023-03-06T08:13:56.129Z,5.40
2023-03-06T08:18:59.107Z,3.03
2023-03-06T08:24:01.934Z,6.13
2023-03-06T08:29:04.765Z,5.55
2023-03-06T08:34:10.177Z,6.05
2023-03-06T08:39:14.451Z,4.67
2023-03-06T08:44:17.384Z,3.85
2023-03-06T08:49:20.140Z,2.92
2023-03-06T08:54:22.779Z,3.83
2023-03-06T08:59:25.601Z,3.97
2023-03-06T09:04:31.520Z,3.63
2023-03-06T09:09:34.192Z,3.22
2023-03-06T09:14:36.971Z,3.03
2023-03-06T09:19:39.699Z,3.03
2023-03-06T09:24:42.696Z,3.28
2023-03-06T09:29:45.550Z,3.03
2023-03-06T09:34:48.536Z,2.88
2023-03-06T09:39:51.206Z,2.63
2023-03-06T09:45:00.981Z,2.65
2023-03-06T09:50:06.737Z,2.90
2023-03-06T09:55:17.852Z,2.67
2023-03-06T10:00:26.724Z,3.95
2023-03-06T10:06:15.278Z,3.15
2023-03-06T10:11:25.323Z,3.15
2023-03-06T10:16:29.718Z,3.20
2023-03-06T10:21:54.243Z,3.70
2023-03-06T10:27:11.236Z,3.45
2023-03-06T10:32:26.086Z,3.28
2023-03-06T10:37:31.630Z,3.40
2023-03-06T10:42:35.196Z,4.50
2023-03-06T10:47:38.804Z,4.27
2023-03-06T10:52:41.474Z,4.00
2023-03-06T10:57:44.139Z,3.83
2023-03-06T11:02:46.960Z,4.05
2023-03-06T11:07:59.545Z,3.28
2023-03-06T11:13:19.270Z,3.87
2023-03-06T11:18:28.827Z,3.80
2023-03-06T11:23:46.886Z,3.75
2023-03-06T11:29:04.066Z,3.63
2023-03-06T11:34:18.984Z,3.83
2023-03-06T11:39:53.602Z,3.43
2023-03-06T11:45:20.143Z,3.92
2023-03-06T11:50:39.377Z,3.50
2023-03-06T11:56:00.573Z,3.95
2023-03-06T12:01:13.737Z,3.50
2023-03-06T12:06:30.235Z,3.60
2023-03-06T12:11:40.540Z,3.60
2023-03-06T12:17:12.984Z,3.25
2023-03-06T12:22:31.286Z,3.10
2023-03-06T12:27:58.668Z,3.30
2023-03-06T12:33:28.561Z,3.07
2023-03-06T12:38:43.340Z,3.33
2023-03-06T12:43:52.195Z,2.88
2023-03-06T12:49:11.190Z,2.80
2023-03-06T12:54:15.576Z,3.22
2023-03-06T12:59:37.360Z,2.90
2023-03-06T13:05:10.688Z,2.58
2023-03-06T13:10:34.065Z,2.95
2023-03-06T13:15:40.009Z,2.78
2023-03-06T13:20:45.179Z,3.10
2023-03-06T13:25:50.486Z,3.30
2023-03-06T13:30:53.477Z,3.35
2023-03-06T13:36:19.512Z,2.75
2023-03-06T13:41:25.325Z,3.17
2023-03-06T13:46:37.774Z,3.58
2023-03-06T13:51:52.921Z,3.53
2023-03-06T13:57:13.510Z,3.08
2023-03-06T14:02:48.120Z,2.78
2023-03-06T14:08:11.140Z,2.35
2023-03-06T14:13:34.939Z,2.85
2023-03-06T14:18:47.336Z,2.63
2023-03-06T14:24:01.817Z,2.10
2023-03-06T14:29:05.419Z,2.30
2023-03-06T14:34:15.495Z,2.47
2023-03-06T14:39:45.774Z,2.42
2023-03-06T14:44:59.948Z,2.27
2023-03-06T14:50:25.268Z,2.38
2023-03-06T14:55:30.277Z,2.25
2023-03-06T15:00:41.088Z,2.90
2023-03-06T15:05:46.906Z,2.90
2023-03-06T15:11:04.404Z,3.20
2023-03-06T15:16:30.156Z,3.35
2023-03-06T15:21:38.082Z,3.10
2023-03-06T15:26:41.373Z,3.10
2023-03-06T15:31:45.977Z,2.40
2023-03-06T15:36:51.680Z,2.80
2023-03-06T15:42:14.835Z,2.58
2023-03-06T15:47:17.800Z,2.50
2023-03-06T15:52:24.073Z,2.40
2023-03-06T15:57:31.296Z,2.05
2023-03-06T16:02:34.181Z,2.23
2023-03-06T16:07:37.208Z,1.63
2023-03-06T16:12:40.817Z,2.05
2023-03-06T16:17:43.515Z,2.22
2023-03-06T16:22:47.904Z,2.25
2023-03-06T16:27:59.762Z,1.87
2023-03-06T16:33:03.762Z,2.53
2023-03-06T16:38:06.595Z,2.38
2023-03-06T16:43:10.852Z,1.90
2023-03-06T16:48:17.408Z,2.10
2023-03-06T16:53:20.108Z,1.93
2023-03-06T16:58:23.024Z,2.88
2023-03-06T17:03:26.074Z,3.08
2023-03-06T17:08:28.984Z,2.88
2023-03-06T17:13:31.923Z,4.30
2023-03-06T17:18:34.765Z,2.73
2023-03-06T17:23:38.366Z,4.53
2023-03-06T17:28:41.943Z,4.70
2023-03-06T17:33:45.156Z,4.55
2023-03-06T17:38:47.922Z,4.15
2023-03-06T17:43:51.896Z,4.80
2023-03-06T17:48:55.736Z,4.80
2023-03-06T17:53:58.675Z,4.20
2023-03-06T17:59:01.659Z,5.55
2023-03-06T18:04:05.841Z,4.70
2023-03-06T18:09:10.283Z,4.93
2023-03-06T18:14:13.173Z,5.82
2023-03-06T18:19:16.731Z,7.20
2023-03-06T18:24:19.573Z,5.95
2023-03-06T18:29:22.530Z,5.32
2023-03-06T18:34:25.652Z,5.87
2023-03-06T18:39:28.585Z,5.95
2023-03-06T18:44:31.392Z,5.07
2023-03-06T18:49:34.153Z,6.05
2023-03-06T18:54:37.091Z,5.43
2023-03-06T18:59:40.024Z,7.10
2023-03-06T19:04:42.705Z,5.50
2023-03-06T19:09:47.868Z,5.70
2023-03-06T19:14:50.929Z,7.10
2023-03-06T19:19:55.450Z,6.75
2023-03-06T19:24:58.372Z,6.07
2023-03-06T19:30:01.218Z,4.68
2023-03-06T19:35:05.776Z,6.68
2023-03-06T19:40:09.641Z,5.95
2023-03-06T19:45:12.751Z,7.20
2023-03-06T19:50:15.872Z,6.73
2023-03-06T19:55:18.656Z,7.32
2023-03-06T20:00:21.689Z,6.57
2023-03-06T20:05:24.429Z,6.57
2023-03-06T20:10:27.286Z,7.13
2023-03-06T20:15:30.251Z,7.00
2023-03-06T20:20:33.155Z,6.63
2023-03-06T20:25:36.961Z,6.38
2023-03-06T20:30:39.680Z,5.13
2023-03-06T20:35:43.715Z,7.63
2023-03-06T20:40:46.761Z,7.17
2023-03-06T20:46:03.442Z,7.90
2023-03-06T20:51:28.877Z,6.85
2023-03-06T20:56:34.403Z,6.25
2023-03-06T21:01:41.353Z,7.22
2023-03-06T21:06:47.111Z,7.77
2023-03-06T21:11:50.158Z,6.90
2023-03-06T21:16:52.909Z,7.15
2023-03-06T21:21:55.835Z,7.38
2023-03-06T21:26:58.528Z,7.53
2023-03-06T21:32:01.437Z,7.27
2023-03-06T21:37:04.377Z,7.90
2023-03-06T21:42:07.253Z,7.35
2023-03-06T21:47:09.925Z,8.20
2023-03-06T21:52:13.044Z,6.05
2023-03-06T21:57:15.775Z,6.70
2023-03-06T22:02:18.363Z,7.50
2023-03-06T22:07:21.765Z,6.45
2023-03-06T22:12:24.776Z,6.90
2023-03-06T22:17:27.558Z,6.63
2023-03-06T22:22:31.319Z,8.27
2023-03-06T22:27:33.920Z,7.60
2023-03-06T22:32:36.520Z,5.07
2023-03-06T22:37:39.153Z,5.43
2023-03-06T22:42:41.773Z,5.15
2023-03-06T22:47:44.589Z,4.87
2023-03-06T22:52:47.320Z,4.68
2023-03-06T22:57:50.362Z,5.72
2023-03-06T23:02:53.077Z,5.32
2023-03-06T23:07:55.611Z,4.47
2023-03-06T23:12:58.197Z,4.87
2023-03-06T23:18:19.573Z,4.70
2023-03-06T23:23:41.506Z,5.47
2023-03-06T23:28:45.053Z,4.30
2023-03-06T23:33:48.244Z,4.35
2023-03-06T23:38:50.920Z,3.30
2023-03-06T23:43:55.123Z,4.78
2023-03-06T23:48:57.917Z,5.40
2023-03-06T23:54:01.238Z,4.63
2023-03-06T23:59:03.916Z,4.22
